createdAt,value
2018-06-21T00:02:13.200Z,4.77
2018-06-21T00:04:40.964Z,4.60
2018-06-21T00:07:08.625Z,5.10
2018-06-21T00:09:36.497Z,4.30
2018-06-21T00:12:05.220Z,4.70
2018-06-21T00:14:33.066Z,5.10
2018-06-21T00:17:00.939Z,5.27
2018-06-21T00:19:28.850Z,5.20
2018-06-21T00:21:56.596Z,5.00
2018-06-21T00:24:24.544Z,5.30
2018-06-21T00:26:52.354Z,4.80
2018-06-21T00:29:20.351Z,5.20
2018-06-21T00:31:48.006Z,5.17
2018-06-21T00:34:15.889Z,5.17
2018-06-21T00:36:43.723Z,4.80
2018-06-21T00:39:11.508Z,5.30
2018-06-21T00:41:39.381Z,4.97
2018-06-21T00:44:07.240Z,4.83
2018-06-21T00:46:35.264Z,4.80
2018-06-21T00:49:03.122Z,5.30
2018-06-21T00:51:30.889Z,5.37
2018-06-21T00:53:58.603Z,5.37
2018-06-21T00:56:26.425Z,5.97
2018-06-21T00:58:54.249Z,5.43
2018-06-21T01:01:22.377Z,5.73
2018-06-21T01:03:50.310Z,5.40
2018-06-21T01:06:18.153Z,5.10
2018-06-21T01:08:45.867Z,6.13
2018-06-21T01:11:13.671Z,5.20
2018-06-21T01:13:41.373Z,5.50
2018-06-21T01:16:09.154Z,5.50
2018-06-21T01:18:36.898Z,5.37
2018-06-21T01:21:05.069Z,5.13
2018-06-21T01:23:33.099Z,8.17
2018-06-21T01:26:01.027Z,6.07
2018-06-21T01:28:28.740Z,5.87
2018-06-21T01:30:56.593Z,5.30
2018-06-21T01:33:24.262Z,5.50
2018-06-21T01:35:51.967Z,5.63
2018-06-21T01:38:19.760Z,5.10
2018-06-21T01:40:47.721Z,5.53
2018-06-21T01:43:15.581Z,5.47
2018-06-21T01:45:43.611Z,5.40
2018-06-21T01:48:11.485Z,5.50
2018-06-21T01:50:39.329Z,5.73
2018-06-21T01:53:07.049Z,5.60
2018-06-21T01:55:34.737Z,5.37
2018-06-21T01:58:02.454Z,5.50
2018-06-21T02:00:32.391Z,6.20
2018-06-21T02:03:00.224Z,5.63
2018-06-21T02:05:28.110Z,5.67
2018-06-21T02:07:55.982Z,6.03
2018-06-21T02:10:23.735Z,6.00
2018-06-21T02:12:51.474Z,6.10
2018-06-21T02:15:19.324Z,5.20
2018-06-21T02:17:47.179Z,5.20
2018-06-21T02:20:14.957Z,5.80
2018-06-21T02:22:42.699Z,5.77
2018-06-21T02:25:10.534Z,5.80
2018-06-21T02:27:38.215Z,5.90
2018-06-21T02:30:06.074Z,6.33
2018-06-21T02:32:33.859Z,5.73
2018-06-21T02:35:01.764Z,5.97
2018-06-21T02:37:29.532Z,5.70
2018-06-21T02:39:57.366Z,5.90
2018-06-21T02:42:25.191Z,5.60
2018-06-21T02:44:52.999Z,6.03
2018-06-21T02:47:20.902Z,5.80
2018-06-21T02:49:48.812Z,5.60
2018-06-21T02:52:16.642Z,5.47
2018-06-21T02:54:44.545Z,5.60
2018-06-21T02:57:12.483Z,5.40
2018-06-21T02:59:40.475Z,5.60
2018-06-21T03:02:08.206Z,5.73
2018-06-21T03:04:35.944Z,5.90
2018-06-21T03:07:03.838Z,5.77
2018-06-21T03:09:31.660Z,6.17
2018-06-21T03:11:59.548Z,5.97
2018-06-21T03:14:27.380Z,6.07
2018-06-21T03:16:55.303Z,6.03
2018-06-21T03:19:23.119Z,6.20
2018-06-21T03:21:50.971Z,5.83
2018-06-21T03:24:18.807Z,6.20
2018-06-21T03:26:46.511Z,7.20
2018-06-21T03:29:14.329Z,6.70
2018-06-21T03:31:42.211Z,6.57
2018-06-21T03:34:09.931Z,7.10
2018-06-21T03:36:37.568Z,6.60
2018-06-21T03:39:06.199Z,5.63
2018-06-21T03:41:34.261Z,6.30
2018-06-21T03:44:02.221Z,5.97
2018-06-21T03:46:30.286Z,6.40
2018-06-21T03:48:58.122Z,6.07
2018-06-21T03:51:25.994Z,6.50
2018-06-21T03:53:53.794Z,6.17
2018-06-21T03:56:21.928Z,6.43
2018-06-21T03:58:49.790Z,6.60
2018-06-21T04:01:17.677Z,5.60
2018-06-21T04:03:45.795Z,6.10
2018-06-21T04:06:13.646Z,6.47
2018-06-21T04:08:41.767Z,5.70
2018-06-21T04:11:09.729Z,6.03
2018-06-21T04:13:37.633Z,6.40
2018-06-21T04:16:05.391Z,6.57
2018-06-21T04:18:36.099Z,6.00
2018-06-21T04:21:05.374Z,6.57
2018-06-21T04:23:33.381Z,5.83
2018-06-21T04:26:01.623Z,5.53
2018-06-21T04:28:29.783Z,6.37
2018-06-21T04:30:57.978Z,5.83
2018-06-21T04:33:25.834Z,5.90
2018-06-21T04:35:53.770Z,5.70
2018-06-21T04:38:21.595Z,6.10
2018-06-21T04:40:49.548Z,6.47
2018-06-21T04:43:17.350Z,5.40
2018-06-21T04:45:45.283Z,5.00
2018-06-21T04:48:13.332Z,6.03
2018-06-21T04:50:41.325Z,5.73
2018-06-21T04:53:09.198Z,5.47
2018-06-21T04:55:37.070Z,5.37
2018-06-21T04:58:05.160Z,5.47
2018-06-21T05:00:33.069Z,5.50
2018-06-21T05:03:01.147Z,5.47
2018-06-21T05:05:29.091Z,5.73
2018-06-21T05:07:56.890Z,5.60
2018-06-21T05:10:24.753Z,5.10
2018-06-21T05:12:52.576Z,5.13
2018-06-21T05:15:20.410Z,5.13
2018-06-21T05:17:51.457Z,5.10
2018-06-21T05:20:19.348Z,5.47
2018-06-21T05:22:47.124Z,5.70
2018-06-21T05:25:15.040Z,4.80
2018-06-21T05:27:42.924Z,5.30
2018-06-21T05:30:10.781Z,4.73
2018-06-21T05:32:38.621Z,4.97
2018-06-21T05:35:06.540Z,5.37
2018-06-21T05:37:34.553Z,4.80
2018-06-21T05:40:02.295Z,5.50
2018-06-21T05:42:30.419Z,4.90
2018-06-21T05:44:58.214Z,5.00
2018-06-21T05:47:26.109Z,5.37
2018-06-21T05:49:54.050Z,4.67
2018-06-21T05:52:21.918Z,5.10
2018-06-21T05:54:49.816Z,5.20
2018-06-21T05:57:17.868Z,5.13
2018-06-21T05:59:45.894Z,5.10
2018-06-21T06:02:13.577Z,4.90
2018-06-21T06:04:41.562Z,4.83
2018-06-21T06:07:09.678Z,4.90
2018-06-21T06:09:37.528Z,4.57
2018-06-21T06:12:05.704Z,4.70
2018-06-21T06:14:33.544Z,4.57
2018-06-21T06:17:01.604Z,5.17
2018-06-21T06:19:29.658Z,4.60
2018-06-21T06:21:57.375Z,4.53
2018-06-21T06:24:25.246Z,4.53
2018-06-21T06:26:53.256Z,4.90
2018-06-21T06:29:21.125Z,4.23
2018-06-21T06:31:49.085Z,4.20
2018-06-21T06:34:16.984Z,4.23
2018-06-21T06:36:44.718Z,4.27
2018-06-21T06:39:18.630Z,4.13
2018-06-21T06:41:48.911Z,3.80
2018-06-21T06:44:16.844Z,3.90
2018-06-21T06:46:44.675Z,3.80
2018-06-21T06:49:13.075Z,4.00
2018-06-21T06:51:41.163Z,3.80
2018-06-21T06:54:10.280Z,4.03
2018-06-21T06:56:38.251Z,3.40
2018-06-21T06:59:06.130Z,3.60
2018-06-21T07:01:34.012Z,3.87
2018-06-21T07:04:01.904Z,3.58
2018-06-21T07:06:29.791Z,3.50
2018-06-21T07:08:58.204Z,3.60
2018-06-21T07:11:27.043Z,3.13
2018-06-21T07:13:55.533Z,3.40
2018-06-21T07:16:23.564Z,2.90
2018-06-21T07:18:51.335Z,3.20
2018-06-21T07:21:20.316Z,3.20
2018-06-21T07:23:48.173Z,3.27
2018-06-21T07:26:16.171Z,3.20
2018-06-21T07:28:44.139Z,3.50
2018-06-21T07:31:12.034Z,2.90
2018-06-21T07:33:39.886Z,3.00
2018-06-21T07:36:07.552Z,2.97
2018-06-21T07:38:35.358Z,3.20
2018-06-21T07:41:03.075Z,3.30
2018-06-21T07:43:30.819Z,2.90
2018-06-21T07:45:58.656Z,2.93
2018-06-21T07:48:26.617Z,3.10
2018-06-21T07:50:54.438Z,2.70
2018-06-21T07:53:22.304Z,2.70
2018-06-21T07:55:50.044Z,3.00
2018-06-21T07:58:18.457Z,3.27
2018-06-21T08:00:46.450Z,3.00
2018-06-21T08:03:14.411Z,3.00
2018-06-21T08:05:42.851Z,3.83
2018-06-21T08:08:10.867Z,2.90
2018-06-21T08:10:38.682Z,3.30
2018-06-21T08:13:06.445Z,2.90
2018-06-21T08:15:34.320Z,3.20
2018-06-21T08:18:02.190Z,3.03
2018-06-21T08:20:29.958Z,3.80
2018-06-21T08:22:58.037Z,2.90
2018-06-21T08:25:26.040Z,2.73
2018-06-21T08:27:53.840Z,2.73
2018-06-21T08:30:21.717Z,2.53
2018-06-21T08:32:49.617Z,2.47
2018-06-21T08:35:17.680Z,2.23
2018-06-21T08:37:46.261Z,2.20
2018-06-21T08:40:14.319Z,2.40
2018-06-21T08:42:42.218Z,2.27
2018-06-21T08:45:10.008Z,2.30
2018-06-21T08:47:37.806Z,2.30
2018-06-21T08:50:05.678Z,2.30
2018-06-21T08:52:33.533Z,2.37
2018-06-21T08:55:01.603Z,2.60
2018-06-21T08:57:29.835Z,2.53
2018-06-21T08:59:57.876Z,2.70
2018-06-21T09:02:26.009Z,2.20
2018-06-21T09:04:54.138Z,2.10
2018-06-21T09:07:22.558Z,2.10
2018-06-21T09:09:50.607Z,2.27
2018-06-21T09:12:18.799Z,2.13
2018-06-21T09:14:47.345Z,1.97
2018-06-21T09:17:15.972Z,2.13
2018-06-21T09:19:46.135Z,2.50
2018-06-21T09:22:17.644Z,2.50
2018-06-21T09:24:45.794Z,2.30
2018-06-21T09:27:14.626Z,2.33
2018-06-21T09:29:44.444Z,2.40
2018-06-21T09:32:15.115Z,2.10
2018-06-21T09:34:43.918Z,2.20
2018-06-21T09:37:13.558Z,2.40
2018-06-21T09:39:48.439Z,2.23
2018-06-21T09:42:21.969Z,2.30
2018-06-21T09:44:55.420Z,2.83
2018-06-21T09:47:29.156Z,2.63
2018-06-21T09:49:57.204Z,2.70
2018-06-21T09:52:25.336Z,2.60
2018-06-21T09:54:53.348Z,2.70
2018-06-21T09:57:21.070Z,2.57
2018-06-21T09:59:49.152Z,2.60
2018-06-21T10:02:17.376Z,2.60
2018-06-21T10:04:45.998Z,2.80
2018-06-21T10:07:14.233Z,2.70
2018-06-21T10:09:42.438Z,2.70
2018-06-21T10:12:10.451Z,2.80
2018-06-21T10:14:38.394Z,2.70
2018-06-21T10:17:08.635Z,2.90
2018-06-21T10:19:41.557Z,2.67
2018-06-21T10:22:09.625Z,2.33
2018-06-21T10:24:37.809Z,2.23
2018-06-21T10:27:05.844Z,2.40
2018-06-21T10:29:34.038Z,2.23
2018-06-21T10:32:02.325Z,2.50
2018-06-21T10:34:30.830Z,2.40
2018-06-21T10:36:59.213Z,2.30
2018-06-21T10:39:27.363Z,2.20
2018-06-21T10:41:55.398Z,2.20
2018-06-21T10:44:23.605Z,2.10
2018-06-21T10:46:51.542Z,2.00
2018-06-21T10:49:19.517Z,2.27
2018-06-21T10:51:47.642Z,2.40
2018-06-21T10:54:16.488Z,2.40
2018-06-21T10:56:45.527Z,2.33
2018-06-21T10:59:14.639Z,1.97
2018-06-21T11:01:44.044Z,2.10
2018-06-21T11:04:12.370Z,2.17
2018-06-21T11:06:40.524Z,2.23
2018-06-21T11:09:09.041Z,2.40
2018-06-21T11:11:37.056Z,2.00
2018-06-21T11:14:05.049Z,2.40
2018-06-21T11:16:32.982Z,2.90
2018-06-21T11:19:07.477Z,2.60
2018-06-21T11:21:35.511Z,2.70
2018-06-21T11:24:07.486Z,2.80
2018-06-21T11:26:35.420Z,2.80
2018-06-21T11:29:03.393Z,2.60
2018-06-21T11:31:33.165Z,2.60
2018-06-21T11:34:01.403Z,2.70
2018-06-21T11:36:29.838Z,2.87
2018-06-21T11:38:57.960Z,2.80
2018-06-21T11:41:32.961Z,2.40
2018-06-21T11:44:01.505Z,3.00
2018-06-21T11:46:37.368Z,2.90
2018-06-21T11:49:06.370Z,3.00
2018-06-21T11:51:34.372Z,3.10
2018-06-21T11:54:02.347Z,2.90
2018-06-21T11:56:30.283Z,3.20
2018-06-21T11:58:58.272Z,3.10
2018-06-21T12:01:26.191Z,3.30
2018-06-21T12:03:54.243Z,2.80
2018-06-21T12:06:22.348Z,2.80
2018-06-21T12:08:51.257Z,3.03
2018-06-21T12:11:19.553Z,3.10
2018-06-21T12:13:47.761Z,2.83
2018-06-21T12:16:15.974Z,2.57
2018-06-21T12:18:45.138Z,2.67
2018-06-21T12:21:13.459Z,2.80
2018-06-21T12:23:41.797Z,2.77
2018-06-21T12:26:09.933Z,2.93
2018-06-21T12:28:37.858Z,2.77
2018-06-21T12:31:05.851Z,2.40
2018-06-21T12:33:33.778Z,2.03
2018-06-21T12:36:01.886Z,2.13
2018-06-21T12:38:40.652Z,1.70
2018-06-21T12:41:08.505Z,2.30
2018-06-21T12:43:36.328Z,1.90
2018-06-21T12:46:04.246Z,1.90
2018-06-21T12:48:32.072Z,1.70
2018-06-21T12:51:00.039Z,2.23
2018-06-21T12:53:28.075Z,2.00
2018-06-21T12:55:55.943Z,1.80
2018-06-21T12:58:23.642Z,1.50
2018-06-21T13:00:51.553Z,2.10
2018-06-21T13:03:19.427Z,1.93
2018-06-21T13:05:47.509Z,2.07
2018-06-21T13:09:24.656Z,2.10
2018-06-21T13:12:35.321Z,2.73
2018-06-21T13:15:03.336Z,2.60
2018-06-21T13:17:31.642Z,3.07
2018-06-21T13:20:00.674Z,2.67
2018-06-21T13:22:28.726Z,3.23
2018-06-21T13:24:56.873Z,3.33
2018-06-21T13:27:24.793Z,2.70
2018-06-21T13:29:53.562Z,2.87
2018-06-21T13:32:21.578Z,2.97
2018-06-21T13:34:49.771Z,3.17
2018-06-21T13:37:17.843Z,3.07
2018-06-21T13:39:45.939Z,3.37
2018-06-21T13:42:14.015Z,3.27
2018-06-21T13:44:43.172Z,2.97
2018-06-21T13:47:11.950Z,2.70
2018-06-21T13:49:39.549Z,3.10
2018-06-21T13:52:10.690Z,3.10
2018-06-21T13:54:38.601Z,2.97
2018-06-21T13:57:06.574Z,3.40
2018-06-21T13:59:34.505Z,2.90
2018-06-21T14:02:02.543Z,3.37
2018-06-21T14:04:30.387Z,3.40
2018-06-21T14:06:58.421Z,3.80
2018-06-21T14:09:26.314Z,3.90
2018-06-21T14:11:54.134Z,3.90
2018-06-21T14:14:22.266Z,3.67
2018-06-21T14:16:50.200Z,3.57
2018-06-21T14:19:18.524Z,3.87
2018-06-21T14:21:46.291Z,4.20
2018-06-21T14:24:14.915Z,4.60
2018-06-21T14:26:44.127Z,4.40
2018-06-21T14:29:12.263Z,5.00
2018-06-21T14:31:40.381Z,5.57
2018-06-21T14:34:08.390Z,5.13
2018-06-21T14:36:36.271Z,5.20
2018-06-21T14:39:06.685Z,5.80
2018-06-21T14:41:34.683Z,5.00
2018-06-21T14:44:02.502Z,4.70
2018-06-21T14:46:30.256Z,6.23
2018-06-21T14:48:58.186Z,6.20
2018-06-21T14:51:26.004Z,7.10
2018-06-21T14:53:54.040Z,6.23
2018-06-21T14:56:21.972Z,7.23
2018-06-21T14:58:50.001Z,7.20
2018-06-21T15:01:17.948Z,6.20
2018-06-21T15:03:45.993Z,7.53
2018-06-21T15:06:13.993Z,8.97
2018-06-21T15:08:49.863Z,7.67
